sensor_id;sensor_type;location;lat;lon;timestamp;temperature;humidity
52125;DHT22;38119;52.710;6.398;2022-12-07T00:01:07;4.30;99.90
52125;DHT22;38119;52.710;6.398;2022-12-07T00:03:34;4.30;99.90
52125;DHT22;38119;52.710;6.398;2022-12-07T00:06:00;4.30;99.90
52125;DHT22;38119;52.710;6.398;2022-12-07T00:08:26;4.30;99.90
52125;DHT22;38119;52.710;6.398;2022-12-07T00:10:52;4.30;99.90
52125;DHT22;38119;52.710;6.398;2022-12-07T00:13:18;4.20;99.90
52125;DHT22;38119;52.710;6.398;2022-12-07T00:15:44;4.20;99.90
52125;DHT22;38119;52.710;6.398;2022-12-07T00:18:09;4.20;99.90
52125;DHT22;38119;52.710;6.398;2022-12-07T00:20:35;4.20;99.90
52125;DHT22;38119;52.710;6.398;2022-12-07T00:23:01;4.20;99.90
52125;DHT22;38119;52.710;6.398;2022-12-07T00:25:26;4.10;99.90
52125;DHT22;38119;52.710;6.398;2022-12-07T00:27:53;4.10;99.90
52125;DHT22;38119;52.710;6.398;2022-12-07T00:30:22;4.10;99.90
52125;DHT22;38119;52.710;6.398;2022-12-07T00:32:47;4.10;99.90
52125;DHT22;38119;52.710;6.398;2022-12-07T00:35:13;4.10;99.90
52125;DHT22;38119;52.710;6.398;2022-12-07T00:37:39;4.10;99.90
52125;DHT22;38119;52.710;6.398;2022-12-07T00:40:05;4.10;99.90
52125;DHT22;38119;52.710;6.398;2022-12-07T00:42:31;4.00;99.90
52125;DHT22;38119;52.710;6.398;2022-12-07T00:44:56;4.00;99.90
52125;DHT22;38119;52.710;6.398;2022-12-07T00:47:22;4.10;99.90
52125;DHT22;38119;52.710;6.398;2022-12-07T00:49:48;4.00;99.90
52125;DHT22;38119;52.710;6.398;2022-12-07T00:52:13;4.00;99.90
52125;DHT22;38119;52.710;6.398;2022-12-07T00:54:40;4.00;99.90
52125;DHT22;38119;52.710;6.398;2022-12-07T00:57:06;4.00;99.90
52125;DHT22;38119;52.710;6.398;2022-12-07T00:59:31;4.00;99.90
52125;DHT22;38119;52.710;6.398;2022-12-07T01:01:57;4.00;99.90
52125;DHT22;38119;52.710;6.398;2022-12-07T01:04:22;4.00;99.90
52125;DHT22;38119;52.710;6.398;2022-12-07T01:06:48;4.00;99.90
52125;DHT22;38119;52.710;6.398;2022-12-07T01:09:14;4.00;99.90
52125;DHT22;38119;52.710;6.398;2022-12-07T01:11:39;4.00;99.90
52125;DHT22;38119;52.710;6.398;2022-12-07T01:14:05;4.00;99.90
52125;DHT22;38119;52.710;6.398;2022-12-07T01:16:32;4.00;99.90
52125;DHT22;38119;52.710;6.398;2022-12-07T01:18:59;4.00;99.90
52125;DHT22;38119;52.710;6.398;2022-12-07T01:21:33;4.00;99.90
52125;DHT22;38119;52.710;6.398;2022-12-07T01:24:09;4.00;99.90
52125;DHT22;38119;52.710;6.398;2022-12-07T01:26:35;4.00;99.90
52125;DHT22;38119;52.710;6.398;2022-12-07T01:29:00;4.00;99.90
52125;DHT22;38119;52.710;6.398;2022-12-07T01:31:27;4.00;99.90
52125;DHT22;38119;52.710;6.398;2022-12-07T01:33:55;4.00;99.90
52125;DHT22;38119;52.710;6.398;2022-12-07T01:36:30;4.00;99.90
52125;DHT22;38119;52.710;6.398;2022-12-07T01:39:00;3.90;99.90
52125;DHT22;38119;52.710;6.398;2022-12-07T01:41:29;3.90;99.90
52125;DHT22;38119;52.710;6.398;2022-12-07T01:46:54;3.90;99.90
52125;DHT22;38119;52.710;6.398;2022-12-07T01:52:23;3.80;99.90
52125;DHT22;38119;52.710;6.398;2022-12-07T01:54:52;3.80;99.90
52125;DHT22;38119;52.710;6.398;2022-12-07T01:57:19;3.80;99.90
52125;DHT22;38119;52.710;6.398;2022-12-07T01:59:48;3.80;99.90
52125;DHT22;38119;52.710;6.398;2022-12-07T02:02:19;3.80;99.90
52125;DHT22;38119;52.710;6.398;2022-12-07T02:04:46;3.80;99.90
52125;DHT22;38119;52.710;6.398;2022-12-07T02:07:12;3.70;99.90
52125;DHT22;38119;52.710;6.398;2022-12-07T02:09:38;3.80;99.90
52125;DHT22;38119;52.710;6.398;2022-12-07T02:12:04;3.70;99.90
52125;DHT22;38119;52.710;6.398;2022-12-07T02:14:29;3.70;99.90
52125;DHT22;38119;52.710;6.398;2022-12-07T02:17:11;3.70;99.90
52125;DHT22;38119;52.710;6.398;2022-12-07T02:28:04;3.70;99.90
52125;DHT22;38119;52.710;6.398;2022-12-07T02:30:33;3.70;99.90
52125;DHT22;38119;52.710;6.398;2022-12-07T02:33:24;3.70;99.90
52125;DHT22;38119;52.710;6.398;2022-12-07T02:35:58;3.70;99.90
52125;DHT22;38119;52.710;6.398;2022-12-07T02:38:37;3.60;99.90
52125;DHT22;38119;52.710;6.398;2022-12-07T02:41:16;3.60;99.90
52125;DHT22;38119;52.710;6.398;2022-12-07T02:43:56;3.60;99.90
52125;DHT22;38119;52.710;6.398;2022-12-07T02:46:30;3.50;99.90
52125;DHT22;38119;52.710;6.398;2022-12-07T02:48:57;3.50;99.90
52125;DHT22;38119;52.710;6.398;2022-12-07T02:51:25;3.50;99.90
52125;DHT22;38119;52.710;6.398;2022-12-07T02:53:51;3.50;99.90
52125;DHT22;38119;52.710;6.398;2022-12-07T03:06:53;3.50;99.90
52125;DHT22;38119;52.710;6.398;2022-12-07T03:12:18;3.60;99.90
52125;DHT22;38119;52.710;6.398;2022-12-07T03:14:57;3.60;99.90
52125;DHT22;38119;52.710;6.398;2022-12-07T03:17:27;3.70;99.90
52125;DHT22;38119;52.710;6.398;2022-12-07T03:19:58;3.70;99.90
52125;DHT22;38119;52.710;6.398;2022-12-07T03:22:25;3.70;99.90
52125;DHT22;38119;52.710;6.398;2022-12-07T03:24:57;3.70;99.90
52125;DHT22;38119;52.710;6.398;2022-12-07T03:27:27;3.80;99.90
52125;DHT22;38119;52.710;6.398;2022-12-07T03:30:20;3.80;99.90
52125;DHT22;38119;52.710;6.398;2022-12-07T03:35:34;3.70;99.90
52125;DHT22;38119;52.710;6.398;2022-12-07T03:38:18;3.80;99.90
52125;DHT22;38119;52.710;6.398;2022-12-07T03:40:49;3.80;99.90
52125;DHT22;38119;52.710;6.398;2022-12-07T03:43:17;3.70;99.90
52125;DHT22;38119;52.710;6.398;2022-12-07T03:51:13;3.70;99.90
52125;DHT22;38119;52.710;6.398;2022-12-07T03:53:54;3.70;99.90
52125;DHT22;38119;52.710;6.398;2022-12-07T03:56:24;3.60;99.90
52125;DHT22;38119;52.710;6.398;2022-12-07T03:58:52;3.60;99.90
52125;DHT22;38119;52.710;6.398;2022-12-07T04:01:18;3.60;99.90
52125;DHT22;38119;52.710;6.398;2022-12-07T04:03:44;3.60;99.90
52125;DHT22;38119;52.710;6.398;2022-12-07T04:06:09;3.60;99.90
52125;DHT22;38119;52.710;6.398;2022-12-07T04:08:35;3.60;99.90
52125;DHT22;38119;52.710;6.398;2022-12-07T04:11:01;3.60;99.90
52125;DHT22;38119;52.710;6.398;2022-12-07T04:13:27;3.60;99.90
52125;DHT22;38119;52.710;6.398;2022-12-07T04:15:52;3.60;99.90
52125;DHT22;38119;52.710;6.398;2022-12-07T04:18:18;3.60;99.90
52125;DHT22;38119;52.710;6.398;2022-12-07T04:20:43;3.60;99.90
52125;DHT22;38119;52.710;6.398;2022-12-07T04:23:09;3.50;99.90
52125;DHT22;38119;52.710;6.398;2022-12-07T04:25:35;3.50;99.90
52125;DHT22;38119;52.710;6.398;2022-12-07T04:28:00;3.50;99.90
52125;DHT22;38119;52.710;6.398;2022-12-07T04:30:27;3.50;99.90
52125;DHT22;38119;52.710;6.398;2022-12-07T04:32:52;3.50;99.90
52125;DHT22;38119;52.710;6.398;2022-12-07T04:35:18;3.40;99.90
52125;DHT22;38119;52.710;6.398;2022-12-07T04:37:43;3.40;99.90
52125;DHT22;38119;52.710;6.398;2022-12-07T04:40:10;3.40;99.90
52125;DHT22;38119;52.710;6.398;2022-12-07T04:42:37;3.40;99.90
52125;DHT22;38119;52.710;6.398;2022-12-07T04:45:03;3.40;99.90
52125;DHT22;38119;52.710;6.398;2022-12-07T04:47:29;3.40;99.90
52125;DHT22;38119;52.710;6.398;2022-12-07T04:49:54;3.40;99.90
52125;DHT22;38119;52.710;6.398;2022-12-07T04:52:20;3.40;99.90
52125;DHT22;38119;52.710;6.398;2022-12-07T04:54:46;3.40;99.90
52125;DHT22;38119;52.710;6.398;2022-12-07T04:57:11;3.40;99.90
52125;DHT22;38119;52.710;6.398;2022-12-07T04:59:37;3.40;99.90
52125;DHT22;38119;52.710;6.398;2022-12-07T05:02:02;3.30;99.90
52125;DHT22;38119;52.710;6.398;2022-12-07T05:04:28;3.30;99.90
52125;DHT22;38119;52.710;6.398;2022-12-07T05:06:54;3.30;99.90
52125;DHT22;38119;52.710;6.398;2022-12-07T05:09:19;3.30;99.90
52125;DHT22;38119;52.710;6.398;2022-12-07T05:11:45;3.30;99.90
52125;DHT22;38119;52.710;6.398;2022-12-07T05:14:20;3.30;99.90
52125;DHT22;38119;52.710;6.398;2022-12-07T05:16:48;3.30;99.90
52125;DHT22;38119;52.710;6.398;2022-12-07T05:19:15;3.30;99.90
52125;DHT22;38119;52.710;6.398;2022-12-07T05:21:40;3.30;99.90
52125;DHT22;38119;52.710;6.398;2022-12-07T05:24:07;3.30;99.90
52125;DHT22;38119;52.710;6.398;2022-12-07T05:26:33;3.20;99.90
52125;DHT22;38119;52.710;6.398;2022-12-07T05:28:59;3.20;99.90
52125;DHT22;38119;52.710;6.398;2022-12-07T05:31:26;3.20;99.90
52125;DHT22;38119;52.710;6.398;2022-12-07T05:33:52;3.20;99.90
52125;DHT22;38119;52.710;6.398;2022-12-07T05:36:18;3.20;99.90
52125;DHT22;38119;52.710;6.398;2022-12-07T05:38:44;3.20;99.90
52125;DHT22;38119;52.710;6.398;2022-12-07T05:41:12;3.20;99.90
52125;DHT22;38119;52.710;6.398;2022-12-07T05:43:59;3.20;99.90
52125;DHT22;38119;52.710;6.398;2022-12-07T05:46:25;3.20;99.90
52125;DHT22;38119;52.710;6.398;2022-12-07T05:48:51;3.10;99.90
52125;DHT22;38119;52.710;6.398;2022-12-07T05:51:17;3.10;99.90
52125;DHT22;38119;52.710;6.398;2022-12-07T05:53:42;3.10;99.90
52125;DHT22;38119;52.710;6.398;2022-12-07T05:56:08;3.10;99.90
52125;DHT22;38119;52.710;6.398;2022-12-07T05:58:34;3.10;99.90
52125;DHT22;38119;52.710;6.398;2022-12-07T06:01:18;3.10;99.90
52125;DHT22;38119;52.710;6.398;2022-12-07T06:03:43;3.00;99.90
52125;DHT22;38119;52.710;6.398;2022-12-07T06:06:10;3.00;99.90
52125;DHT22;38119;52.710;6.398;2022-12-07T06:08:35;3.00;99.90
52125;DHT22;38119;52.710;6.398;2022-12-07T06:11:01;3.10;99.90
52125;DHT22;38119;52.710;6.398;2022-12-07T06:13:45;3.10;99.90
52125;DHT22;38119;52.710;6.398;2022-12-07T06:16:11;3.10;99.90
52125;DHT22;38119;52.710;6.398;2022-12-07T06:18:36;3.10;99.90
52125;DHT22;38119;52.710;6.398;2022-12-07T06:21:02;3.10;99.90
52125;DHT22;38119;52.710;6.398;2022-12-07T06:23:27;3.10;99.90
52125;DHT22;38119;52.710;6.398;2022-12-07T06:25:53;3.10;99.90
52125;DHT22;38119;52.710;6.398;2022-12-07T06:28:18;3.20;99.90
52125;DHT22;38119;52.710;6.398;2022-12-07T06:30:44;3.20;99.90
52125;DHT22;38119;52.710;6.398;2022-12-07T06:33:10;3.20;99.90
52125;DHT22;38119;52.710;6.398;2022-12-07T06:35:35;3.20;99.90
52125;DHT22;38119;52.710;6.398;2022-12-07T06:38:01;3.20;99.90
52125;DHT22;38119;52.710;6.398;2022-12-07T06:40:27;3.30;99.90
52125;DHT22;38119;52.710;6.398;2022-12-07T06:42:53;3.30;99.90
52125;DHT22;38119;52.710;6.398;2022-12-07T06:45:18;3.30;99.90
52125;DHT22;38119;52.710;6.398;2022-12-07T06:47:44;3.40;99.90
52125;DHT22;38119;52.710;6.398;2022-12-07T06:50:09;3.40;99.90
52125;DHT22;38119;52.710;6.398;2022-12-07T06:52:35;3.40;99.90
52125;DHT22;38119;52.710;6.398;2022-12-07T06:55:00;3.40;99.90
52125;DHT22;38119;52.710;6.398;2022-12-07T06:57:26;3.40;99.90
52125;DHT22;38119;52.710;6.398;2022-12-07T06:59:52;3.40;99.90
52125;DHT22;38119;52.710;6.398;2022-12-07T07:02:17;3.40;99.90
52125;DHT22;38119;52.710;6.398;2022-12-07T07:04:43;3.40;99.90
52125;DHT22;38119;52.710;6.398;2022-12-07T07:07:09;3.40;99.90
52125;DHT22;38119;52.710;6.398;2022-12-07T07:09:34;3.30;99.90
52125;DHT22;38119;52.710;6.398;2022-12-07T07:12:00;3.40;99.90
52125;DHT22;38119;52.710;6.398;2022-12-07T07:14:26;3.40;99.90
52125;DHT22;38119;52.710;6.398;2022-12-07T07:16:51;3.40;99.90
52125;DHT22;38119;52.710;6.398;2022-12-07T07:19:17;3.30;99.90
52125;DHT22;38119;52.710;6.398;2022-12-07T07:21:43;3.30;99.90
52125;DHT22;38119;52.710;6.398;2022-12-07T07:24:08;3.30;99.90
52125;DHT22;38119;52.710;6.398;2022-12-07T07:26:34;3.30;99.90
52125;DHT22;38119;52.710;6.398;2022-12-07T07:28:59;3.30;99.90
52125;DHT22;38119;52.710;6.398;2022-12-07T07:31:25;3.30;99.90
52125;DHT22;38119;52.710;6.398;2022-12-07T07:33:51;3.30;99.90
52125;DHT22;38119;52.710;6.398;2022-12-07T07:36:16;3.30;99.90
52125;DHT22;38119;52.710;6.398;2022-12-07T07:38:42;3.30;99.90
52125;DHT22;38119;52.710;6.398;2022-12-07T07:41:07;3.30;99.90
52125;DHT22;38119;52.710;6.398;2022-12-07T07:43:33;3.30;99.90
52125;DHT22;38119;52.710;6.398;2022-12-07T07:45:59;3.30;99.90
52125;DHT22;38119;52.710;6.398;2022-12-07T07:48:24;3.30;99.90
52125;DHT22;38119;52.710;6.398;2022-12-07T07:50:51;3.20;99.90
52125;DHT22;38119;52.710;6.398;2022-12-07T07:53:16;3.20;99.90
52125;DHT22;38119;52.710;6.398;2022-12-07T07:55:50;3.30;99.90
52125;DHT22;38119;52.710;6.398;2022-12-07T07:58:16;3.30;99.90
52125;DHT22;38119;52.710;6.398;2022-12-07T08:00:42;3.30;99.90
52125;DHT22;38119;52.710;6.398;2022-12-07T08:03:07;3.30;99.90
52125;DHT22;38119;52.710;6.398;2022-12-07T08:05:33;3.30;99.90
52125;DHT22;38119;52.710;6.398;2022-12-07T08:07:58;3.40;99.90
52125;DHT22;38119;52.710;6.398;2022-12-07T08:10:24;3.40;99.90
52125;DHT22;38119;52.710;6.398;2022-12-07T08:12:50;3.50;99.90
52125;DHT22;38119;52.710;6.398;2022-12-07T08:15:37;3.50;99.90
52125;DHT22;38119;52.710;6.398;2022-12-07T08:18:02;3.50;99.90
52125;DHT22;38119;52.710;6.398;2022-12-07T08:20:30;3.60;99.90
52125;DHT22;38119;52.710;6.398;2022-12-07T08:22:56;3.50;99.90
52125;DHT22;38119;52.710;6.398;2022-12-07T08:25:22;3.60;99.90
52125;DHT22;38119;52.710;6.398;2022-12-07T08:27:49;3.50;99.90
52125;DHT22;38119;52.710;6.398;2022-12-07T08:30:15;3.40;99.90
52125;DHT22;38119;52.710;6.398;2022-12-07T08:32:41;3.40;99.90
52125;DHT22;38119;52.710;6.398;2022-12-07T08:35:07;3.40;99.90
52125;DHT22;38119;52.710;6.398;2022-12-07T08:37:33;3.40;99.90
52125;DHT22;38119;52.710;6.398;2022-12-07T08:39:59;3.40;99.90
52125;DHT22;38119;52.710;6.398;2022-12-07T08:42:24;3.30;99.90
52125;DHT22;38119;52.710;6.398;2022-12-07T08:44:57;3.30;99.90
52125;DHT22;38119;52.710;6.398;2022-12-07T08:47:24;3.30;99.90
52125;DHT22;38119;52.710;6.398;2022-12-07T08:49:51;3.30;99.90
52125;DHT22;38119;52.710;6.398;2022-12-07T08:52:18;3.30;99.90
52125;DHT22;38119;52.710;6.398;2022-12-07T08:54:44;3.30;99.90
52125;DHT22;38119;52.710;6.398;2022-12-07T08:57:10;3.30;99.90
52125;DHT22;38119;52.710;6.398;2022-12-07T09:03:06;3.30;99.90
52125;DHT22;38119;52.710;6.398;2022-12-07T09:05:33;3.40;99.90
52125;DHT22;38119;52.710;6.398;2022-12-07T09:13:10;3.60;99.90
52125;DHT22;38119;52.710;6.398;2022-12-07T09:15:35;3.70;99.90
52125;DHT22;38119;52.710;6.398;2022-12-07T09:18:01;3.70;99.90
52125;DHT22;38119;52.710;6.398;2022-12-07T09:25:37;3.70;99.90
52125;DHT22;38119;52.710;6.398;2022-12-07T09:28:03;3.70;99.90
52125;DHT22;38119;52.710;6.398;2022-12-07T09:30:29;3.60;99.90
52125;DHT22;38119;52.710;6.398;2022-12-07T09:32:56;3.60;99.90
52125;DHT22;38119;52.710;6.398;2022-12-07T09:37:57;3.60;99.90
52125;DHT22;38119;52.710;6.398;2022-12-07T09:40:23;3.60;99.90
52125;DHT22;38119;52.710;6.398;2022-12-07T09:42:52;3.60;99.90
52125;DHT22;38119;52.710;6.398;2022-12-07T09:45:26;3.80;99.90
52125;DHT22;38119;52.710;6.398;2022-12-07T09:47:59;3.70;99.90
52125;DHT22;38119;52.710;6.398;2022-12-07T09:50:27;3.80;99.90
52125;DHT22;38119;52.710;6.398;2022-12-07T09:53:08;4.00;99.90
52125;DHT22;38119;52.710;6.398;2022-12-07T09:55:36;4.10;99.90
52125;DHT22;38119;52.710;6.398;2022-12-07T09:58:39;4.20;99.90
52125;DHT22;38119;52.710;6.398;2022-12-07T10:03:45;4.40;99.90
52125;DHT22;38119;52.710;6.398;2022-12-07T10:06:13;4.50;99.90
52125;DHT22;38119;52.710;6.398;2022-12-07T10:08:40;4.50;99.90
52125;DHT22;38119;52.710;6.398;2022-12-07T10:11:07;4.60;99.90
52125;DHT22;38119;52.710;6.398;2022-12-07T10:13:39;5.20;99.90
52125;DHT22;38119;52.710;6.398;2022-12-07T10:16:06;4.20;99.90
52125;DHT22;38119;52.710;6.398;2022-12-07T10:18:51;4.70;99.90
52125;DHT22;38119;52.710;6.398;2022-12-07T10:21:19;4.70;99.90
52125;DHT22;38119;52.710;6.398;2022-12-07T10:24:14;4.70;99.90
52125;DHT22;38119;52.710;6.398;2022-12-07T10:29:18;4.90;99.90
52125;DHT22;38119;52.710;6.398;2022-12-07T10:31:56;4.70;99.90
52125;DHT22;38119;52.710;6.398;2022-12-07T10:34:23;4.70;99.90
52125;DHT22;38119;52.710;6.398;2022-12-07T10:36:53;4.70;99.90
52125;DHT22;38119;52.710;6.398;2022-12-07T10:39:23;4.70;99.90
52125;DHT22;38119;52.710;6.398;2022-12-07T10:42:03;4.70;99.90
52125;DHT22;38119;52.710;6.398;2022-12-07T10:44:30;4.70;99.90
52125;DHT22;38119;52.710;6.398;2022-12-07T10:47:20;4.60;99.90
52125;DHT22;38119;52.710;6.398;2022-12-07T10:58:37;5.00;99.90
52125;DHT22;38119;52.710;6.398;2022-12-07T11:07:22;5.10;99.90
52125;DHT22;38119;52.710;6.398;2022-12-07T11:10:13;5.10;99.90
52125;DHT22;38119;52.710;6.398;2022-12-07T11:12:47;5.30;99.90
52125;DHT22;38119;52.710;6.398;2022-12-07T11:18:34;5.20;99.90
52125;DHT22;38119;52.710;6.398;2022-12-07T11:21:13;5.30;99.90
52125;DHT22;38119;52.710;6.398;2022-12-07T11:23:50;5.30;99.90
52125;DHT22;38119;52.710;6.398;2022-12-07T11:37:18;5.40;99.90
52125;DHT22;38119;52.710;6.398;2022-12-07T11:39:52;5.40;99.90
52125;DHT22;38119;52.710;6.398;2022-12-07T11:42:25;5.50;99.90
52125;DHT22;38119;52.710;6.398;2022-12-07T11:44:57;5.60;99.90
52125;DHT22;38119;52.710;6.398;2022-12-07T11:47:27;5.50;99.90
52125;DHT22;38119;52.710;6.398;2022-12-07T11:50:34;6.70;99.90
52125;DHT22;38119;52.710;6.398;2022-12-07T12:06:34;5.50;99.90
52125;DHT22;38119;52.710;6.398;2022-12-07T12:09:09;5.60;99.90
52125;DHT22;38119;52.710;6.398;2022-12-07T12:11:44;5.60;99.90
52125;DHT22;38119;52.710;6.398;2022-12-07T12:22:40;6.00;99.90
52125;DHT22;38119;52.710;6.398;2022-12-07T12:25:23;6.00;99.90
52125;DHT22;38119;52.710;6.398;2022-12-07T12:27:52;6.20;99.90
52125;DHT22;38119;52.710;6.398;2022-12-07T12:30:40;6.60;99.90
52125;DHT22;38119;52.710;6.398;2022-12-07T12:33:25;7.40;99.90
52125;DHT22;38119;52.710;6.398;2022-12-07T12:51:58;8.30;99.90
52125;DHT22;38119;52.710;6.398;2022-12-07T12:54:29;7.90;99.90
52125;DHT22;38119;52.710;6.398;2022-12-07T12:59:38;6.70;99.90
52125;DHT22;38119;52.710;6.398;2022-12-07T13:02:24;6.60;99.90
52125;DHT22;38119;52.710;6.398;2022-12-07T13:10:46;6.40;99.90
52125;DHT22;38119;52.710;6.398;2022-12-07T13:18:35;6.40;99.90
52125;DHT22;38119;52.710;6.398;2022-12-07T13:29:12;6.20;99.90
52125;DHT22;38119;52.710;6.398;2022-12-07T13:31:45;6.90;99.90
52125;DHT22;38119;52.710;6.398;2022-12-07T13:36:58;6.40;99.90
52125;DHT22;38119;52.710;6.398;2022-12-07T13:39:26;6.80;99.90
52125;DHT22;38119;52.710;6.398;2022-12-07T13:41:54;6.50;99.90
52125;DHT22;38119;52.710;6.398;2022-12-07T13:44:23;6.50;99.90
52125;DHT22;38119;52.710;6.398;2022-12-07T13:47:23;6.30;99.90
52125;DHT22;38119;52.710;6.398;2022-12-07T13:49:56;5.90;99.90
52125;DHT22;38119;52.710;6.398;2022-12-07T13:52:25;6.00;99.90
52125;DHT22;38119;52.710;6.398;2022-12-07T13:55:16;7.00;99.90
52125;DHT22;38119;52.710;6.398;2022-12-07T13:57:47;6.80;99.90
52125;DHT22;38119;52.710;6.398;2022-12-07T14:00:26;7.70;99.90
52125;DHT22;38119;52.710;6.398;2022-12-07T14:05:28;5.90;99.90
52125;DHT22;38119;52.710;6.398;2022-12-07T14:07:59;6.00;99.90
52125;DHT22;38119;52.710;6.398;2022-12-07T14:10:34;6.00;99.90
52125;DHT22;38119;52.710;6.398;2022-12-07T14:13:02;5.90;99.90
52125;DHT22;38119;52.710;6.398;2022-12-07T14:15:34;6.30;99.90
52125;DHT22;38119;52.710;6.398;2022-12-07T14:18:02;6.50;99.90
52125;DHT22;38119;52.710;6.398;2022-12-07T14:20:38;6.20;99.90
52125;DHT22;38119;52.710;6.398;2022-12-07T14:23:05;5.70;99.90
52125;DHT22;38119;52.710;6.398;2022-12-07T14:26:18;5.50;99.90
52125;DHT22;38119;52.710;6.398;2022-12-07T14:28:45;5.60;99.90
52125;DHT22;38119;52.710;6.398;2022-12-07T14:31:14;7.20;99.90
52125;DHT22;38119;52.710;6.398;2022-12-07T14:33:41;7.00;99.90
52125;DHT22;38119;52.710;6.398;2022-12-07T14:36:14;5.40;99.90
52125;DHT22;38119;52.710;6.398;2022-12-07T14:38:40;6.20;99.90
52125;DHT22;38119;52.710;6.398;2022-12-07T14:41:15;5.50;99.90
52125;DHT22;38119;52.710;6.398;2022-12-07T14:44:04;5.40;99.90
52125;DHT22;38119;52.710;6.398;2022-12-07T14:46:33;5.30;99.90
52125;DHT22;38119;52.710;6.398;2022-12-07T14:48:58;4.90;99.90
52125;DHT22;38119;52.710;6.398;2022-12-07T14:51:24;5.80;99.90
52125;DHT22;38119;52.710;6.398;2022-12-07T14:53:51;6.50;99.90
52125;DHT22;38119;52.710;6.398;2022-12-07T14:56:17;5.00;99.90
52125;DHT22;38119;52.710;6.398;2022-12-07T14:58:43;6.50;99.90
52125;DHT22;38119;52.710;6.398;2022-12-07T15:01:08;4.90;99.90
52125;DHT22;38119;52.710;6.398;2022-12-07T15:03:34;5.10;99.90
52125;DHT22;38119;52.710;6.398;2022-12-07T15:06:00;4.80;99.90
52125;DHT22;38119;52.710;6.398;2022-12-07T15:08:27;5.00;99.90
52125;DHT22;38119;52.710;6.398;2022-12-07T15:10:52;5.80;99.90
52125;DHT22;38119;52.710;6.398;2022-12-07T15:13:18;6.40;99.90
52125;DHT22;38119;52.710;6.398;2022-12-07T15:16:02;4.90;99.90
52125;DHT22;38119;52.710;6.398;2022-12-07T15:18:28;5.00;99.90
52125;DHT22;38119;52.710;6.398;2022-12-07T15:20:54;6.10;99.90
52125;DHT22;38119;52.710;6.398;2022-12-07T15:23:19;5.00;99.90
52125;DHT22;38119;52.710;6.398;2022-12-07T15:25:47;6.50;99.90
52125;DHT22;38119;52.710;6.398;2022-12-07T15:28:13;6.10;99.90
52125;DHT22;38119;52.710;6.398;2022-12-07T15:30:41;4.30;99.90
52125;DHT22;38119;52.710;6.398;2022-12-07T15:33:08;5.60;99.90
52125;DHT22;38119;52.710;6.398;2022-12-07T15:35:37;5.20;99.90
52125;DHT22;38119;52.710;6.398;2022-12-07T15:43:09;5.00;99.90
52125;DHT22;38119;52.710;6.398;2022-12-07T15:45:55;4.90;99.90
52125;DHT22;38119;52.710;6.398;2022-12-07T15:48:20;4.80;99.90
52125;DHT22;38119;52.710;6.398;2022-12-07T15:50:46;4.80;99.90
52125;DHT22;38119;52.710;6.398;2022-12-07T15:53:12;4.80;99.90
52125;DHT22;38119;52.710;6.398;2022-12-07T15:55:41;4.70;99.90
52125;DHT22;38119;52.710;6.398;2022-12-07T15:58:07;4.70;99.90
52125;DHT22;38119;52.710;6.398;2022-12-07T16:00:33;4.60;99.90
52125;DHT22;38119;52.710;6.398;2022-12-07T16:02:58;4.60;99.90
52125;DHT22;38119;52.710;6.398;2022-12-07T16:05:24;4.50;99.90
52125;DHT22;38119;52.710;6.398;2022-12-07T16:07:50;4.40;99.90
52125;DHT22;38119;52.710;6.398;2022-12-07T16:10:15;4.30;99.90
52125;DHT22;38119;52.710;6.398;2022-12-07T16:12:41;4.30;99.90
52125;DHT22;38119;52.710;6.398;2022-12-07T16:15:07;4.30;99.90
52125;DHT22;38119;52.710;6.398;2022-12-07T16:17:33;4.20;99.90
52125;DHT22;38119;52.710;6.398;2022-12-07T16:19:58;4.40;99.90
52125;DHT22;38119;52.710;6.398;2022-12-07T16:22:24;4.20;99.90
52125;DHT22;38119;52.710;6.398;2022-12-07T16:24:49;4.20;99.90
52125;DHT22;38119;52.710;6.398;2022-12-07T16:27:15;4.20;99.90
52125;DHT22;38119;52.710;6.398;2022-12-07T16:29:41;4.20;99.90
52125;DHT22;38119;52.710;6.398;2022-12-07T16:32:06;4.20;99.90
52125;DHT22;38119;52.710;6.398;2022-12-07T16:34:32;4.10;99.90
52125;DHT22;38119;52.710;6.398;2022-12-07T16:36:58;4.10;99.90
52125;DHT22;38119;52.710;6.398;2022-12-07T16:39:23;4.10;99.90
52125;DHT22;38119;52.710;6.398;2022-12-07T16:41:50;4.10;99.90
52125;DHT22;38119;52.710;6.398;2022-12-07T16:44:15;4.10;99.90
52125;DHT22;38119;52.710;6.398;2022-12-07T16:46:41;4.10;99.90
52125;DHT22;38119;52.710;6.398;2022-12-07T16:49:10;4.10;99.90
52125;DHT22;38119;52.710;6.398;2022-12-07T16:51:36;4.10;99.90
52125;DHT22;38119;52.710;6.398;2022-12-07T16:54:02;4.10;99.90
52125;DHT22;38119;52.710;6.398;2022-12-07T16:56:28;4.10;99.90
52125;DHT22;38119;52.710;6.398;2022-12-07T16:58:54;4.20;99.90
52125;DHT22;38119;52.710;6.398;2022-12-07T17:01:21;4.20;99.90
52125;DHT22;38119;52.710;6.398;2022-12-07T17:03:48;4.20;99.90
52125;DHT22;38119;52.710;6.398;2022-12-07T17:06:22;5.10;99.90
52125;DHT22;38119;52.710;6.398;2022-12-07T17:08:48;4.20;99.90
52125;DHT22;38119;52.710;6.398;2022-12-07T17:11:20;4.20;99.90
52125;DHT22;38119;52.710;6.398;2022-12-07T17:13:46;4.20;99.90
52125;DHT22;38119;52.710;6.398;2022-12-07T17:16:30;4.10;99.90
52125;DHT22;38119;52.710;6.398;2022-12-07T17:18:56;4.10;99.90
52125;DHT22;38119;52.710;6.398;2022-12-07T17:21:22;4.10;99.90
52125;DHT22;38119;52.710;6.398;2022-12-07T17:23:48;4.10;99.90
52125;DHT22;38119;52.710;6.398;2022-12-07T17:26:17;4.10;99.90
52125;DHT22;38119;52.710;6.398;2022-12-07T17:28:43;4.10;99.90
52125;DHT22;38119;52.710;6.398;2022-12-07T17:31:11;4.00;99.90
52125;DHT22;38119;52.710;6.398;2022-12-07T17:33:37;4.10;99.90
52125;DHT22;38119;52.710;6.398;2022-12-07T17:36:15;4.00;99.90
52125;DHT22;38119;52.710;6.398;2022-12-07T17:38:41;4.00;99.90
52125;DHT22;38119;52.710;6.398;2022-12-07T17:41:10;4.00;99.90
52125;DHT22;38119;52.710;6.398;2022-12-07T17:43:37;3.90;99.90
52125;DHT22;38119;52.710;6.398;2022-12-07T17:46:08;3.90;99.90
52125;DHT22;38119;52.710;6.398;2022-12-07T17:48:34;3.90;99.90
52125;DHT22;38119;52.710;6.398;2022-12-07T17:51:00;3.90;99.90
52125;DHT22;38119;52.710;6.398;2022-12-07T17:53:48;3.90;99.90
52125;DHT22;38119;52.710;6.398;2022-12-07T17:56:13;3.90;99.90
52125;DHT22;38119;52.710;6.398;2022-12-07T17:58:39;3.90;99.90
52125;DHT22;38119;52.710;6.398;2022-12-07T18:01:08;3.90;99.90
52125;DHT22;38119;52.710;6.398;2022-12-07T18:03:34;3.90;99.90
52125;DHT22;38119;52.710;6.398;2022-12-07T18:06:00;3.90;99.90
52125;DHT22;38119;52.710;6.398;2022-12-07T18:08:26;3.80;99.90
52125;DHT22;38119;52.710;6.398;2022-12-07T18:10:58;3.80;99.90
52125;DHT22;38119;52.710;6.398;2022-12-07T18:13:24;3.80;99.90
52125;DHT22;38119;52.710;6.398;2022-12-07T18:16:23;3.80;99.90
52125;DHT22;38119;52.710;6.398;2022-12-07T18:18:50;3.80;99.90
52125;DHT22;38119;52.710;6.398;2022-12-07T18:21:21;3.80;99.90
52125;DHT22;38119;52.710;6.398;2022-12-07T18:23:49;3.70;99.90
52125;DHT22;38119;52.710;6.398;2022-12-07T18:26:16;3.70;99.90
52125;DHT22;38119;52.710;6.398;2022-12-07T18:28:43;3.70;99.90
52125;DHT22;38119;52.710;6.398;2022-12-07T18:31:12;3.60;99.90
52125;DHT22;38119;52.710;6.398;2022-12-07T18:33:39;3.60;99.90